sensor_id;sensor_type;location;lat;lon;timestamp;temperature;humidity
61672;DHT22;47572;0.00000000;0.00000000;2022-12-18T00:00:46;17.70;56.30
61672;DHT22;47572;0.00000000;0.00000000;2022-12-18T00:03:13;17.70;56.30
61672;DHT22;47572;0.00000000;0.00000000;2022-12-18T00:05:46;17.70;56.30
61672;DHT22;47572;0.00000000;0.00000000;2022-12-18T00:08:12;17.70;56.30
61672;DHT22;47572;0.00000000;0.00000000;2022-12-18T00:10:38;17.60;56.30
61672;DHT22;47572;0.00000000;0.00000000;2022-12-18T00:13:04;17.60;56.30
61672;DHT22;47572;0.00000000;0.00000000;2022-12-18T00:15:30;17.60;56.30
61672;DHT22;47572;0.00000000;0.00000000;2022-12-18T00:17:56;17.60;56.30
61672;DHT22;47572;0.00000000;0.00000000;2022-12-18T00:20:21;17.50;56.10
61672;DHT22;47572;0.00000000;0.00000000;2022-12-18T00:22:51;17.50;56.10
61672;DHT22;47572;0.00000000;0.00000000;2022-12-18T00:25:17;17.50;56.10
61672;DHT22;47572;0.00000000;0.00000000;2022-12-18T00:27:43;17.50;55.80
61672;DHT22;47572;0.00000000;0.00000000;2022-12-18T00:30:09;17.50;55.80
61672;DHT22;47572;0.00000000;0.00000000;2022-12-18T00:32:35;17.50;55.80
61672;DHT22;47572;0.00000000;0.00000000;2022-12-18T00:35:00;17.40;55.70
61672;DHT22;47572;0.00000000;0.00000000;2022-12-18T00:37:26;17.40;55.80
61672;DHT22;47572;0.00000000;0.00000000;2022-12-18T00:39:54;17.40;55.80
61672;DHT22;47572;0.00000000;0.00000000;2022-12-18T00:42:20;17.40;55.90
61672;DHT22;47572;0.00000000;0.00000000;2022-12-18T00:45:04;17.40;55.90
61672;DHT22;47572;0.00000000;0.00000000;2022-12-18T00:47:32;17.40;55.90
61672;DHT22;47572;0.00000000;0.00000000;2022-12-18T00:49:58;17.40;55.80
61672;DHT22;47572;0.00000000;0.00000000;2022-12-18T00:52:24;17.30;55.70
61672;DHT22;47572;0.00000000;0.00000000;2022-12-18T00:54:50;17.30;55.80
61672;DHT22;47572;0.00000000;0.00000000;2022-12-18T00:57:15;17.30;56.00
61672;DHT22;47572;0.00000000;0.00000000;2022-12-18T00:59:41;17.30;56.10
61672;DHT22;47572;0.00000000;0.00000000;2022-12-18T01:02:07;17.30;56.00
61672;DHT22;47572;0.00000000;0.00000000;2022-12-18T01:04:33;17.30;56.00
61672;DHT22;47572;0.00000000;0.00000000;2022-12-18T01:06:59;17.40;56.10
61672;DHT22;47572;0.00000000;0.00000000;2022-12-18T01:09:25;17.40;56.00
61672;DHT22;47572;0.00000000;0.00000000;2022-12-18T01:11:52;17.40;56.00
61672;DHT22;47572;0.00000000;0.00000000;2022-12-18T01:14:18;17.40;56.00
61672;DHT22;47572;0.00000000;0.00000000;2022-12-18T01:16:43;17.40;55.90
61672;DHT22;47572;0.00000000;0.00000000;2022-12-18T01:19:09;17.40;55.90
61672;DHT22;47572;0.00000000;0.00000000;2022-12-18T01:21:35;17.40;55.80
61672;DHT22;47572;0.00000000;0.00000000;2022-12-18T01:24:05;17.40;55.80
61672;DHT22;47572;0.00000000;0.00000000;2022-12-18T01:26:31;17.40;56.70
61672;DHT22;47572;0.00000000;0.00000000;2022-12-18T01:29:06;17.40;55.70
61672;DHT22;47572;0.00000000;0.00000000;2022-12-18T01:31:33;17.40;56.60
61672;DHT22;47572;0.00000000;0.00000000;2022-12-18T01:34:03;17.40;55.60
61672;DHT22;47572;0.00000000;0.00000000;2022-12-18T01:36:29;17.40;55.70
61672;DHT22;47572;0.00000000;0.00000000;2022-12-18T01:38:58;17.40;55.50
61672;DHT22;47572;0.00000000;0.00000000;2022-12-18T01:41:26;17.40;55.50
61672;DHT22;47572;0.00000000;0.00000000;2022-12-18T01:46:57;17.50;55.50
61672;DHT22;47572;0.00000000;0.00000000;2022-12-18T01:49:22;17.50;55.50
61672;DHT22;47572;0.00000000;0.00000000;2022-12-18T01:51:48;17.50;55.40
61672;DHT22;47572;0.00000000;0.00000000;2022-12-18T01:54:14;17.50;55.40
61672;DHT22;47572;0.00000000;0.00000000;2022-12-18T01:56:40;17.50;55.30
61672;DHT22;47572;0.00000000;0.00000000;2022-12-18T01:59:06;17.50;55.20
61672;DHT22;47572;0.00000000;0.00000000;2022-12-18T02:01:33;17.50;55.20
61672;DHT22;47572;0.00000000;0.00000000;2022-12-18T02:06:43;17.50;55.10
61672;DHT22;47572;0.00000000;0.00000000;2022-12-18T02:09:18;17.50;55.20
61672;DHT22;47572;0.00000000;0.00000000;2022-12-18T02:12:29;17.50;55.00
61672;DHT22;47572;0.00000000;0.00000000;2022-12-18T02:17:05;17.50;55.00
61672;DHT22;47572;0.00000000;0.00000000;2022-12-18T02:24:43;17.40;54.80
61672;DHT22;47572;0.00000000;0.00000000;2022-12-18T02:27:11;17.40;55.00
61672;DHT22;47572;0.00000000;0.00000000;2022-12-18T02:29:41;17.40;54.80
61672;DHT22;47572;0.00000000;0.00000000;2022-12-18T02:32:11;17.40;54.90
61672;DHT22;47572;0.00000000;0.00000000;2022-12-18T02:34:39;17.40;54.80
61672;DHT22;47572;0.00000000;0.00000000;2022-12-18T02:37:05;17.40;54.80
61672;DHT22;47572;0.00000000;0.00000000;2022-12-18T02:39:33;17.40;54.80
61672;DHT22;47572;0.00000000;0.00000000;2022-12-18T02:41:59;17.40;54.80
61672;DHT22;47572;0.00000000;0.00000000;2022-12-18T02:44:27;17.40;54.80
61672;DHT22;47572;0.00000000;0.00000000;2022-12-18T02:46:53;17.40;54.70
61672;DHT22;47572;0.00000000;0.00000000;2022-12-18T02:49:29;17.40;54.80
61672;DHT22;47572;0.00000000;0.00000000;2022-12-18T02:56:57;17.40;54.70
61672;DHT22;47572;0.00000000;0.00000000;2022-12-18T02:59:33;17.30;54.60
61672;DHT22;47572;0.00000000;0.00000000;2022-12-18T03:07:01;17.30;54.90
61672;DHT22;47572;0.00000000;0.00000000;2022-12-18T03:09:34;17.30;55.10
61672;DHT22;47572;0.00000000;0.00000000;2022-12-18T03:12:14;17.30;55.20
61672;DHT22;47572;0.00000000;0.00000000;2022-12-18T03:14:53;17.30;55.20
61672;DHT22;47572;0.00000000;0.00000000;2022-12-18T03:17:22;17.30;55.30
61672;DHT22;47572;0.00000000;0.00000000;2022-12-18T03:19:48;17.30;55.30
61672;DHT22;47572;0.00000000;0.00000000;2022-12-18T03:22:14;17.30;55.50
61672;DHT22;47572;0.00000000;0.00000000;2022-12-18T03:24:41;17.30;55.40
61672;DHT22;47572;0.00000000;0.00000000;2022-12-18T03:27:09;17.30;55.30
61672;DHT22;47572;0.00000000;0.00000000;2022-12-18T03:29:38;17.30;55.30
61672;DHT22;47572;0.00000000;0.00000000;2022-12-18T03:32:06;17.30;55.30
61672;DHT22;47572;0.00000000;0.00000000;2022-12-18T03:34:34;17.30;55.30
61672;DHT22;47572;0.00000000;0.00000000;2022-12-18T03:37:01;17.20;55.30
61672;DHT22;47572;0.00000000;0.00000000;2022-12-18T03:39:27;17.30;55.30
61672;DHT22;47572;0.00000000;0.00000000;2022-12-18T03:41:55;17.20;55.30
61672;DHT22;47572;0.00000000;0.00000000;2022-12-18T03:44:34;17.20;55.20
61672;DHT22;47572;0.00000000;0.00000000;2022-12-18T03:47:19;17.20;55.20
61672;DHT22;47572;0.00000000;0.00000000;2022-12-18T03:52:36;17.20;55.30
61672;DHT22;47572;0.00000000;0.00000000;2022-12-18T03:55:02;17.20;55.00
61672;DHT22;47572;0.00000000;0.00000000;2022-12-18T03:57:29;17.20;54.80
61672;DHT22;47572;0.00000000;0.00000000;2022-12-18T04:00:00;17.20;54.70
61672;DHT22;47572;0.00000000;0.00000000;2022-12-18T04:02:27;17.20;54.50
61672;DHT22;47572;0.00000000;0.00000000;2022-12-18T04:04:55;17.20;54.60
61672;DHT22;47572;0.00000000;0.00000000;2022-12-18T04:07:22;17.20;54.40
61672;DHT22;47572;0.00000000;0.00000000;2022-12-18T04:09:48;17.20;54.40
61672;DHT22;47572;0.00000000;0.00000000;2022-12-18T04:12:15;17.20;54.40
61672;DHT22;47572;0.00000000;0.00000000;2022-12-18T04:14:41;17.20;54.30
61672;DHT22;47572;0.00000000;0.00000000;2022-12-18T04:17:07;17.10;54.30
61672;DHT22;47572;0.00000000;0.00000000;2022-12-18T04:19:33;17.10;54.30
61672;DHT22;47572;0.00000000;0.00000000;2022-12-18T04:21:59;17.10;54.20
61672;DHT22;47572;0.00000000;0.00000000;2022-12-18T04:24:24;17.10;54.20
61672;DHT22;47572;0.00000000;0.00000000;2022-12-18T04:26:50;17.10;54.10
61672;DHT22;47572;0.00000000;0.00000000;2022-12-18T04:29:18;17.10;54.20
61672;DHT22;47572;0.00000000;0.00000000;2022-12-18T04:31:44;17.10;54.10
61672;DHT22;47572;0.00000000;0.00000000;2022-12-18T04:34:10;17.10;54.00
61672;DHT22;47572;0.00000000;0.00000000;2022-12-18T04:36:35;17.10;54.10
61672;DHT22;47572;0.00000000;0.00000000;2022-12-18T04:39:02;17.10;54.10
61672;DHT22;47572;0.00000000;0.00000000;2022-12-18T04:41:28;17.10;54.00
61672;DHT22;47572;0.00000000;0.00000000;2022-12-18T04:43:53;17.10;53.90
61672;DHT22;47572;0.00000000;0.00000000;2022-12-18T04:46:19;17.10;53.90
61672;DHT22;47572;0.00000000;0.00000000;2022-12-18T04:48:45;17.10;54.00
61672;DHT22;47572;0.00000000;0.00000000;2022-12-18T04:51:13;17.00;53.90
61672;DHT22;47572;0.00000000;0.00000000;2022-12-18T04:53:38;17.00;54.00
61672;DHT22;47572;0.00000000;0.00000000;2022-12-18T04:56:09;17.00;54.00
61672;DHT22;47572;0.00000000;0.00000000;2022-12-18T04:58:35;17.00;54.00
61672;DHT22;47572;0.00000000;0.00000000;2022-12-18T05:01:01;17.00;54.00
61672;DHT22;47572;0.00000000;0.00000000;2022-12-18T05:03:27;17.00;54.00
61672;DHT22;47572;0.00000000;0.00000000;2022-12-18T05:05:52;17.00;54.00
61672;DHT22;47572;0.00000000;0.00000000;2022-12-18T05:08:18;17.00;54.10
61672;DHT22;47572;0.00000000;0.00000000;2022-12-18T05:10:44;17.00;54.00
61672;DHT22;47572;0.00000000;0.00000000;2022-12-18T05:13:10;17.00;54.00
61672;DHT22;47572;0.00000000;0.00000000;2022-12-18T05:15:36;17.00;54.10
61672;DHT22;47572;0.00000000;0.00000000;2022-12-18T05:18:02;17.00;54.00
61672;DHT22;47572;0.00000000;0.00000000;2022-12-18T05:20:29;17.00;54.00
61672;DHT22;47572;0.00000000;0.00000000;2022-12-18T05:22:55;16.90;54.00
61672;DHT22;47572;0.00000000;0.00000000;2022-12-18T05:25:21;16.90;54.00
61672;DHT22;47572;0.00000000;0.00000000;2022-12-18T05:27:47;16.90;53.90
61672;DHT22;47572;0.00000000;0.00000000;2022-12-18T05:30:13;16.90;53.80
61672;DHT22;47572;0.00000000;0.00000000;2022-12-18T05:32:39;16.90;53.90
61672;DHT22;47572;0.00000000;0.00000000;2022-12-18T05:35:06;16.90;53.80
61672;DHT22;47572;0.00000000;0.00000000;2022-12-18T05:37:32;16.90;53.90
61672;DHT22;47572;0.00000000;0.00000000;2022-12-18T05:39:58;16.90;53.80
61672;DHT22;47572;0.00000000;0.00000000;2022-12-18T05:42:24;16.90;53.90
61672;DHT22;47572;0.00000000;0.00000000;2022-12-18T05:44:50;16.90;53.80
61672;DHT22;47572;0.00000000;0.00000000;2022-12-18T05:47:15;16.90;53.80
61672;DHT22;47572;0.00000000;0.00000000;2022-12-18T05:49:41;16.90;53.70
61672;DHT22;47572;0.00000000;0.00000000;2022-12-18T05:52:12;16.80;53.80
61672;DHT22;47572;0.00000000;0.00000000;2022-12-18T05:54:38;16.80;53.70
61672;DHT22;47572;0.00000000;0.00000000;2022-12-18T05:57:05;16.80;53.70
61672;DHT22;47572;0.00000000;0.00000000;2022-12-18T05:59:30;16.80;53.70
61672;DHT22;47572;0.00000000;0.00000000;2022-12-18T06:01:56;16.80;53.60
61672;DHT22;47572;0.00000000;0.00000000;2022-12-18T06:04:22;16.80;53.70
61672;DHT22;47572;0.00000000;0.00000000;2022-12-18T06:06:48;16.80;53.50
61672;DHT22;47572;0.00000000;0.00000000;2022-12-18T06:09:16;16.80;53.60
61672;DHT22;47572;0.00000000;0.00000000;2022-12-18T06:11:42;16.80;53.60
61672;DHT22;47572;0.00000000;0.00000000;2022-12-18T06:14:08;16.80;53.70
61672;DHT22;47572;0.00000000;0.00000000;2022-12-18T06:16:34;16.80;53.60
61672;DHT22;47572;0.00000000;0.00000000;2022-12-18T06:19:02;16.80;53.70
61672;DHT22;47572;0.00000000;0.00000000;2022-12-18T06:21:28;16.80;53.70
61672;DHT22;47572;0.00000000;0.00000000;2022-12-18T06:23:54;16.80;53.70
61672;DHT22;47572;0.00000000;0.00000000;2022-12-18T06:26:20;16.70;53.60
61672;DHT22;47572;0.00000000;0.00000000;2022-12-18T06:28:47;16.80;53.60
61672;DHT22;47572;0.00000000;0.00000000;2022-12-18T06:31:12;16.70;53.50
61672;DHT22;47572;0.00000000;0.00000000;2022-12-18T06:33:38;16.70;53.70
61672;DHT22;47572;0.00000000;0.00000000;2022-12-18T06:36:05;16.70;53.60
61672;DHT22;47572;0.00000000;0.00000000;2022-12-18T06:38:32;16.70;53.60
61672;DHT22;47572;0.00000000;0.00000000;2022-12-18T06:40:58;16.70;53.50
61672;DHT22;47572;0.00000000;0.00000000;2022-12-18T06:43:24;16.70;53.60
61672;DHT22;47572;0.00000000;0.00000000;2022-12-18T06:45:50;16.70;53.60
61672;DHT22;47572;0.00000000;0.00000000;2022-12-18T06:48:18;16.70;53.60
61672;DHT22;47572;0.00000000;0.00000000;2022-12-18T06:50:47;16.70;53.60
61672;DHT22;47572;0.00000000;0.00000000;2022-12-18T06:53:13;16.70;53.50
61672;DHT22;47572;0.00000000;0.00000000;2022-12-18T06:55:39;16.70;54.30
61672;DHT22;47572;0.00000000;0.00000000;2022-12-18T06:58:05;16.70;53.40
61672;DHT22;47572;0.00000000;0.00000000;2022-12-18T07:00:30;16.70;53.30
61672;DHT22;47572;0.00000000;0.00000000;2022-12-18T07:02:56;16.70;53.30
61672;DHT22;47572;0.00000000;0.00000000;2022-12-18T07:05:22;16.70;53.20
61672;DHT22;47572;0.00000000;0.00000000;2022-12-18T07:07:49;16.70;53.20
61672;DHT22;47572;0.00000000;0.00000000;2022-12-18T07:10:15;16.70;53.20
61672;DHT22;47572;0.00000000;0.00000000;2022-12-18T07:12:41;16.70;53.20
61672;DHT22;47572;0.00000000;0.00000000;2022-12-18T07:15:07;16.70;53.10
61672;DHT22;47572;0.00000000;0.00000000;2022-12-18T07:17:33;16.70;54.10
61672;DHT22;47572;0.00000000;0.00000000;2022-12-18T07:19:59;16.70;53.00
61672;DHT22;47572;0.00000000;0.00000000;2022-12-18T07:22:25;16.70;53.20
61672;DHT22;47572;0.00000000;0.00000000;2022-12-18T07:24:51;16.70;53.00
61672;DHT22;47572;0.00000000;0.00000000;2022-12-18T07:27:17;16.70;53.00
61672;DHT22;47572;0.00000000;0.00000000;2022-12-18T07:29:43;16.70;52.80
61672;DHT22;47572;0.00000000;0.00000000;2022-12-18T07:32:09;16.80;52.70
61672;DHT22;47572;0.00000000;0.00000000;2022-12-18T07:34:34;16.70;52.80
61672;DHT22;47572;0.00000000;0.00000000;2022-12-18T07:37:03;16.80;52.80
61672;DHT22;47572;0.00000000;0.00000000;2022-12-18T07:39:29;16.70;52.60
61672;DHT22;47572;0.00000000;0.00000000;2022-12-18T07:41:55;16.70;52.50
61672;DHT22;47572;0.00000000;0.00000000;2022-12-18T07:44:39;16.70;52.50
61672;DHT22;47572;0.00000000;0.00000000;2022-12-18T07:47:05;16.70;52.50
61672;DHT22;47572;0.00000000;0.00000000;2022-12-18T07:49:35;16.70;52.40
61672;DHT22;47572;0.00000000;0.00000000;2022-12-18T07:52:01;16.70;52.40
61672;DHT22;47572;0.00000000;0.00000000;2022-12-18T07:54:27;16.70;52.30
61672;DHT22;47572;0.00000000;0.00000000;2022-12-18T07:56:53;16.80;52.60
61672;DHT22;47572;0.00000000;0.00000000;2022-12-18T07:59:19;16.80;53.60
61672;DHT22;47572;0.00000000;0.00000000;2022-12-18T08:01:44;16.70;54.00
61672;DHT22;47572;0.00000000;0.00000000;2022-12-18T08:04:16;16.70;54.20
61672;DHT22;47572;0.00000000;0.00000000;2022-12-18T08:06:42;16.70;54.90
61672;DHT22;47572;0.00000000;0.00000000;2022-12-18T08:09:09;16.80;54.50
61672;DHT22;47572;0.00000000;0.00000000;2022-12-18T08:11:35;16.90;54.20
61672;DHT22;47572;0.00000000;0.00000000;2022-12-18T08:14:00;17.00;53.90
61672;DHT22;47572;0.00000000;0.00000000;2022-12-18T08:16:27;17.20;53.50
61672;DHT22;47572;0.00000000;0.00000000;2022-12-18T08:18:57;17.30;53.10
61672;DHT22;47572;0.00000000;0.00000000;2022-12-18T08:21:25;17.40;52.70
61672;DHT22;47572;0.00000000;0.00000000;2022-12-18T08:23:52;17.60;52.40
61672;DHT22;47572;0.00000000;0.00000000;2022-12-18T08:26:18;17.70;52.10
61672;DHT22;47572;0.00000000;0.00000000;2022-12-18T08:28:53;17.80;51.80
61672;DHT22;47572;0.00000000;0.00000000;2022-12-18T08:31:19;18.00;51.40
61672;DHT22;47572;0.00000000;0.00000000;2022-12-18T08:33:45;18.10;51.10
61672;DHT22;47572;0.00000000;0.00000000;2022-12-18T08:36:11;18.30;50.80
61672;DHT22;47572;0.00000000;0.00000000;2022-12-18T08:38:36;18.40;50.50
61672;DHT22;47572;0.00000000;0.00000000;2022-12-18T08:41:03;18.50;50.10
61672;DHT22;47572;0.00000000;0.00000000;2022-12-18T08:43:29;18.60;49.80
61672;DHT22;47572;0.00000000;0.00000000;2022-12-18T08:46:13;18.80;49.60
61672;DHT22;47572;0.00000000;0.00000000;2022-12-18T08:48:39;18.90;49.20
61672;DHT22;47572;0.00000000;0.00000000;2022-12-18T08:51:05;19.00;48.90
61672;DHT22;47572;0.00000000;0.00000000;2022-12-18T08:53:31;19.10;48.80
61672;DHT22;47572;0.00000000;0.00000000;2022-12-18T08:55:56;19.20;48.60
61672;DHT22;47572;0.00000000;0.00000000;2022-12-18T08:58:22;19.30;48.40
61672;DHT22;47572;0.00000000;0.00000000;2022-12-18T09:00:48;19.40;48.40
61672;DHT22;47572;0.00000000;0.00000000;2022-12-18T09:03:15;19.40;48.30
61672;DHT22;47572;0.00000000;0.00000000;2022-12-18T09:05:41;19.40;48.30
61672;DHT22;47572;0.00000000;0.00000000;2022-12-18T09:08:08;19.40;48.20
61672;DHT22;47572;0.00000000;0.00000000;2022-12-18T09:10:33;19.40;48.10
61672;DHT22;47572;0.00000000;0.00000000;2022-12-18T09:12:59;19.40;48.20
61672;DHT22;47572;0.00000000;0.00000000;2022-12-18T09:15:25;19.40;48.20
61672;DHT22;47572;0.00000000;0.00000000;2022-12-18T09:17:51;19.40;48.20
61672;DHT22;47572;0.00000000;0.00000000;2022-12-18T09:20:18;19.40;48.20
61672;DHT22;47572;0.00000000;0.00000000;2022-12-18T09:22:45;19.50;48.20
61672;DHT22;47572;0.00000000;0.00000000;2022-12-18T09:25:11;19.50;49.00
61672;DHT22;47572;0.00000000;0.00000000;2022-12-18T09:27:39;19.50;48.10
61672;DHT22;47572;0.00000000;0.00000000;2022-12-18T09:30:05;19.50;48.00
61672;DHT22;47572;0.00000000;0.00000000;2022-12-18T09:32:31;19.50;48.00
61672;DHT22;47572;0.00000000;0.00000000;2022-12-18T09:34:56;19.50;47.90
61672;DHT22;47572;0.00000000;0.00000000;2022-12-18T09:37:22;19.60;47.90
61672;DHT22;47572;0.00000000;0.00000000;2022-12-18T09:39:49;19.60;47.90
61672;DHT22;47572;0.00000000;0.00000000;2022-12-18T09:42:20;19.60;47.90
61672;DHT22;47572;0.00000000;0.00000000;2022-12-18T09:44:49;19.60;47.90
61672;DHT22;47572;0.00000000;0.00000000;2022-12-18T09:49:46;19.60;48.80
61672;DHT22;47572;0.00000000;0.00000000;2022-12-18T09:52:16;19.60;47.90
61672;DHT22;47572;0.00000000;0.00000000;2022-12-18T09:54:47;19.60;47.90
61672;DHT22;47572;0.00000000;0.00000000;2022-12-18T09:57:21;19.60;47.80
61672;DHT22;47572;0.00000000;0.00000000;2022-12-18T09:59:55;19.60;47.90
61672;DHT22;47572;0.00000000;0.00000000;2022-12-18T10:02:25;19.60;47.90
61672;DHT22;47572;0.00000000;0.00000000;2022-12-18T10:04:58;19.60;48.00
61672;DHT22;47572;0.00000000;0.00000000;2022-12-18T10:07:29;19.60;48.10
61672;DHT22;47572;0.00000000;0.00000000;2022-12-18T10:10:04;19.60;48.00
61672;DHT22;47572;0.00000000;0.00000000;2022-12-18T10:12:38;19.60;48.10
61672;DHT22;47572;0.00000000;0.00000000;2022-12-18T10:25:26;19.70;48.20
61672;DHT22;47572;0.00000000;0.00000000;2022-12-18T10:27:55;19.70;48.10
61672;DHT22;47572;0.00000000;0.00000000;2022-12-18T10:30:22;19.70;48.20
61672;DHT22;47572;0.00000000;0.00000000;2022-12-18T10:32:48;19.70;48.20
61672;DHT22;47572;0.00000000;0.00000000;2022-12-18T10:38:32;19.80;48.40
61672;DHT22;47572;0.00000000;0.00000000;2022-12-18T10:40:47;19.80;48.50
61672;DHT22;47572;0.00000000;0.00000000;2022-12-18T10:43:13;19.80;48.60
61672;DHT22;47572;0.00000000;0.00000000;2022-12-18T10:45:41;19.80;48.60
61672;DHT22;47572;0.00000000;0.00000000;2022-12-18T10:48:19;19.80;48.70
61672;DHT22;47572;0.00000000;0.00000000;2022-12-18T10:50:47;19.80;48.80
61672;DHT22;47572;0.00000000;0.00000000;2022-12-18T10:53:19;19.80;48.80
61672;DHT22;47572;0.00000000;0.00000000;2022-12-18T10:55:46;19.80;48.90
61672;DHT22;47572;0.00000000;0.00000000;2022-12-18T10:58:13;19.80;48.90
61672;DHT22;47572;0.00000000;0.00000000;2022-12-18T11:00:41;19.80;48.90
61672;DHT22;47572;0.00000000;0.00000000;2022-12-18T11:03:28;19.80;49.90
61672;DHT22;47572;0.00000000;0.00000000;2022-12-18T11:06:15;19.80;48.90
61672;DHT22;47572;0.00000000;0.00000000;2022-12-18T11:08:39;19.80;48.90
61672;DHT22;47572;0.00000000;0.00000000;2022-12-18T11:11:07;19.80;48.90
61672;DHT22;47572;0.00000000;0.00000000;2022-12-18T11:13:41;19.80;49.00
61672;DHT22;47572;0.00000000;0.00000000;2022-12-18T11:16:18;19.90;49.00
61672;DHT22;47572;0.00000000;0.00000000;2022-12-18T11:18:44;19.80;49.00
61672;DHT22;47572;0.00000000;0.00000000;2022-12-18T11:21:11;19.90;49.00
61672;DHT22;47572;0.00000000;0.00000000;2022-12-18T11:23:51;19.90;48.90
61672;DHT22;47572;0.00000000;0.00000000;2022-12-18T11:26:18;19.90;48.90
61672;DHT22;47572;0.00000000;0.00000000;2022-12-18T11:28:46;19.90;48.90
61672;DHT22;47572;0.00000000;0.00000000;2022-12-18T11:31:26;19.90;49.90
61672;DHT22;47572;0.00000000;0.00000000;2022-12-18T11:34:00;19.90;49.00
61672;DHT22;47572;0.00000000;0.00000000;2022-12-18T11:36:28;19.90;49.00
61672;DHT22;47572;0.00000000;0.00000000;2022-12-18T11:38:55;19.90;49.00
61672;DHT22;47572;0.00000000;0.00000000;2022-12-18T11:41:27;19.90;49.00
61672;DHT22;47572;0.00000000;0.00000000;2022-12-18T11:44:36;19.90;49.00
61672;DHT22;47572;0.00000000;0.00000000;2022-12-18T11:47:01;19.90;49.00
61672;DHT22;47572;0.00000000;0.00000000;2022-12-18T11:49:32;19.90;49.00
61672;DHT22;47572;0.00000000;0.00000000;2022-12-18T11:54:34;20.00;49.00
61672;DHT22;47572;0.00000000;0.00000000;2022-12-18T11:57:10;19.90;48.90
61672;DHT22;47572;0.00000000;0.00000000;2022-12-18T12:00:01;19.90;48.90
61672;DHT22;47572;0.00000000;0.00000000;2022-12-18T12:07:42;20.00;48.90
61672;DHT22;47572;0.00000000;0.00000000;2022-12-18T12:10:18;19.90;48.80
61672;DHT22;47572;0.00000000;0.00000000;2022-12-18T12:17:44;20.00;48.80
61672;DHT22;47572;0.00000000;0.00000000;2022-12-18T12:20:34;20.00;48.80
61672;DHT22;47572;0.00000000;0.00000000;2022-12-18T12:23:06;20.00;48.70
61672;DHT22;47572;0.00000000;0.00000000;2022-12-18T12:28:15;20.00;48.60
61672;DHT22;47572;0.00000000;0.00000000;2022-12-18T12:30:48;20.00;48.60
61672;DHT22;47572;0.00000000;0.00000000;2022-12-18T12:38:40;20.00;48.60
61672;DHT22;47572;0.00000000;0.00000000;2022-12-18T12:41:09;20.00;48.60
61672;DHT22;47572;0.00000000;0.00000000;2022-12-18T12:43:58;20.00;48.60
61672;DHT22;47572;0.00000000;0.00000000;2022-12-18T12:46:25;20.00;48.60
61672;DHT22;47572;0.00000000;0.00000000;2022-12-18T12:48:52;20.00;48.60
61672;DHT22;47572;0.00000000;0.00000000;2022-12-18T12:51:21;20.00;48.50
61672;DHT22;47572;0.00000000;0.00000000;2022-12-18T12:53:47;20.00;48.50
61672;DHT22;47572;0.00000000;0.00000000;2022-12-18T12:56:14;20.00;48.50
61672;DHT22;47572;0.00000000;0.00000000;2022-12-18T13:01:34;20.00;48.50
61672;DHT22;47572;0.00000000;0.00000000;2022-12-18T13:06:56;19.90;48.70
61672;DHT22;47572;0.00000000;0.00000000;2022-12-18T13:09:25;19.90;48.80
61672;DHT22;47572;0.00000000;0.00000000;2022-12-18T13:11:54;19.80;48.80
61672;DHT22;47572;0.00000000;0.00000000;2022-12-18T13:14:45;19.80;48.80
61672;DHT22;47572;0.00000000;0.00000000;2022-12-18T13:19:42;19.70;48.90
61672;DHT22;47572;0.00000000;0.00000000;2022-12-18T13:22:23;19.70;48.90
61672;DHT22;47572;0.00000000;0.00000000;2022-12-18T13:24:50;19.70;49.00
61672;DHT22;47572;0.00000000;0.00000000;2022-12-18T13:45:44;19.80;48.40
61672;DHT22;47572;0.00000000;0.00000000;2022-12-18T13:48:19;19.80;48.40
61672;DHT22;47572;0.00000000;0.00000000;2022-12-18T13:50:52;19.80;48.30
61672;DHT22;47572;0.00000000;0.00000000;2022-12-18T13:53:21;19.80;48.20
61672;DHT22;47572;0.00000000;0.00000000;2022-12-18T13:55:49;19.80;48.20
61672;DHT22;47572;0.00000000;0.00000000;2022-12-18T13:58:16;19.90;48.30
61672;DHT22;47572;0.00000000;0.00000000;2022-12-18T14:00:42;19.90;48.30
61672;DHT22;47572;0.00000000;0.00000000;2022-12-18T14:03:24;19.90;48.30
61672;DHT22;47572;0.00000000;0.00000000;2022-12-18T14:06:05;19.80;48.20
61672;DHT22;47572;0.00000000;0.00000000;2022-12-18T14:08:34;19.90;48.30
61672;DHT22;47572;0.00000000;0.00000000;2022-12-18T14:11:00;19.90;48.30
61672;DHT22;47572;0.00000000;0.00000000;2022-12-18T14:13:28;19.80;48.20
61672;DHT22;47572;0.00000000;0.00000000;2022-12-18T14:15:54;19.90;48.30
61672;DHT22;47572;0.00000000;0.00000000;2022-12-18T14:21:05;19.90;48.30
61672;DHT22;47572;0.00000000;0.00000000;2022-12-18T14:23:35;19.90;48.30
61672;DHT22;47572;0.00000000;0.00000000;2022-12-18T14:26:01;19.90;48.30
61672;DHT22;47572;0.00000000;0.00000000;2022-12-18T14:28:28;19.90;48.30
61672;DHT22;47572;0.00000000;0.00000000;2022-12-18T14:30:54;19.90;48.30
61672;DHT22;47572;0.00000000;0.00000000;2022-12-18T14:33:25;19.90;48.30
61672;DHT22;47572;0.00000000;0.00000000;2022-12-18T14:35:58;19.90;48.30
61672;DHT22;47572;0.00000000;0.00000000;2022-12-18T14:38:27;19.90;48.30
61672;DHT22;47572;0.00000000;0.00000000;2022-12-18T14:40:57;19.90;48.30
61672;DHT22;47572;0.00000000;0.00000000;2022-12-18T14:43:23;19.90;48.30
61672;DHT22;47572;0.00000000;0.00000000;2022-12-18T14:45:49;19.90;48.30
61672;DHT22;47572;0.00000000;0.00000000;2022-12-18T14:48:24;19.90;48.40
61672;DHT22;47572;0.00000000;0.00000000;2022-12-18T14:51:03;19.90;48.30
61672;DHT22;47572;0.00000000;0.00000000;2022-12-18T14:53:34;19.90;48.30
61672;DHT22;47572;0.00000000;0.00000000;2022-12-18T14:56:01;19.90;49.20
61672;DHT22;47572;0.00000000;0.00000000;2022-12-18T14:58:26;19.90;48.20
61672;DHT22;47572;0.00000000;0.00000000;2022-12-18T15:00:52;19.90;48.20
61672;DHT22;47572;0.00000000;0.00000000;2022-12-18T15:03:18;19.90;48.10
61672;DHT22;47572;0.00000000;0.00000000;2022-12-18T15:05:45;19.90;48.10
61672;DHT22;47572;0.00000000;0.00000000;2022-12-18T15:08:27;19.90;48.10
61672;DHT22;47572;0.00000000;0.00000000;2022-12-18T15:10:53;19.90;48.10
61672;DHT22;47572;0.00000000;0.00000000;2022-12-18T15:13:22;19.90;48.00